createdAt,value
2018-01-15T00:01:51.464Z,33.50
2018-01-15T00:04:19.007Z,35.10
2018-01-15T00:06:46.565Z,34.57
2018-01-15T00:09:14.095Z,31.00
2018-01-15T00:11:42.423Z,29.13
2018-01-15T00:14:09.966Z,33.90
2018-01-15T00:16:37.514Z,34.77
2018-01-15T00:19:05.082Z,34.40
2018-01-15T00:21:32.629Z,35.45
2018-01-15T00:24:00.205Z,32.58
2018-01-15T00:26:27.746Z,33.90
2018-01-15T00:28:56.110Z,33.42
2018-01-15T00:31:24.426Z,33.25
2018-01-15T00:33:51.991Z,33.50
2018-01-15T00:36:19.539Z,39.95
2018-01-15T00:38:47.098Z,38.13
2018-01-15T00:41:14.646Z,38.40
2018-01-15T00:43:42.974Z,38.57
2018-01-15T00:46:10.511Z,38.37
2018-01-15T00:48:38.122Z,35.33
2018-01-15T00:51:05.656Z,33.37
2018-01-15T00:53:33.209Z,29.27
2018-01-15T00:56:01.517Z,35.20
2018-01-15T00:58:29.849Z,34.03
2018-01-15T01:00:57.385Z,38.58
2018-01-15T01:03:24.950Z,37.83
2018-01-15T01:05:52.501Z,37.63
2018-01-15T01:08:20.068Z,41.92
2018-01-15T01:10:47.658Z,45.23
2018-01-15T01:13:15.222Z,48.15
2018-01-15T01:15:42.766Z,39.72
2018-01-15T01:18:10.537Z,48.87
2018-01-15T01:20:38.074Z,56.40
2018-01-15T01:23:05.611Z,44.97
2018-01-15T01:25:33.924Z,47.20
2018-01-15T01:28:01.466Z,38.30
2018-01-15T01:30:29.030Z,40.80
2018-01-15T01:32:56.574Z,36.67
2018-01-15T01:35:24.916Z,41.05
2018-01-15T01:37:52.444Z,35.93
2018-01-15T01:40:20.010Z,43.90
2018-01-15T01:42:47.568Z,43.63
2018-01-15T01:45:15.126Z,36.65
2018-01-15T01:47:42.663Z,44.33
2018-01-15T01:50:10.229Z,37.23
2018-01-15T01:52:37.753Z,40.00
2018-01-15T01:55:05.314Z,38.63
2018-01-15T01:57:33.625Z,38.72
2018-01-15T02:00:01.202Z,45.47
2018-01-15T02:02:28.742Z,37.38
2018-01-15T02:04:56.306Z,48.30
2018-01-15T02:07:23.842Z,46.40
2018-01-15T02:09:52.173Z,37.30
2018-01-15T02:12:19.719Z,38.10
2018-01-15T02:14:47.272Z,35.90
2018-01-15T02:17:14.801Z,40.53
2018-01-15T02:19:43.130Z,39.87
2018-01-15T02:22:10.679Z,45.27
2018-01-15T02:24:38.209Z,36.03
2018-01-15T02:27:05.769Z,41.45
2018-01-15T02:29:33.317Z,43.80
2018-01-15T02:32:01.651Z,39.77
2018-01-15T02:34:29.184Z,48.40
2018-01-15T02:36:56.744Z,39.03
2018-01-15T02:39:24.288Z,38.80
2018-01-15T02:41:51.849Z,33.37
2018-01-15T02:44:19.381Z,42.70
2018-01-15T02:46:47.706Z,39.33
2018-01-15T02:49:15.255Z,41.47
2018-01-15T02:51:42.810Z,38.23
2018-01-15T02:54:10.350Z,39.20
2018-01-15T02:56:38.689Z,43.83
2018-01-15T02:59:06.237Z,44.27
2018-01-15T03:01:33.786Z,43.20
2018-01-15T03:04:01.318Z,46.67
2018-01-15T03:06:28.881Z,52.40
2018-01-15T03:08:56.409Z,46.77
2018-01-15T03:11:23.961Z,46.23
2018-01-15T03:13:51.495Z,44.20
2018-01-15T03:16:19.057Z,41.53
2018-01-15T03:18:46.595Z,41.63
2018-01-15T03:21:14.322Z,44.73
2018-01-15T03:23:42.656Z,44.40
2018-01-15T03:26:10.181Z,45.07
2018-01-15T03:28:37.785Z,48.47
2018-01-15T03:31:05.330Z,44.83
2018-01-15T03:33:32.885Z,39.50
2018-01-15T03:36:00.417Z,45.83
2018-01-15T03:38:27.986Z,45.27
2018-01-15T03:40:55.535Z,47.20
2018-01-15T03:43:23.098Z,44.33
2018-01-15T03:45:50.641Z,56.35
2018-01-15T03:48:18.973Z,46.45
2018-01-15T03:50:46.514Z,45.23
2018-01-15T03:53:14.085Z,49.77
2018-01-15T03:55:41.617Z,44.73
2018-01-15T03:58:09.177Z,46.00
2018-01-15T04:00:36.710Z,42.10
2018-01-15T04:03:05.037Z,40.53
2018-01-15T04:05:32.573Z,49.27
2018-01-15T04:08:00.133Z,40.23
2018-01-15T04:10:27.670Z,45.43
2018-01-15T04:12:56.005Z,44.97
2018-01-15T04:15:23.546Z,43.00
2018-01-15T04:17:51.101Z,49.03
2018-01-15T04:20:18.630Z,42.47
2018-01-15T04:22:46.930Z,48.67
2018-01-15T04:25:14.494Z,48.83
2018-01-15T04:27:42.026Z,50.17
2018-01-15T04:30:10.351Z,52.70
2018-01-15T04:32:37.886Z,48.40
2018-01-15T04:35:05.445Z,56.37
2018-01-15T04:37:32.982Z,53.17
2018-01-15T04:40:01.301Z,55.80
2018-01-15T04:42:28.841Z,56.33
2018-01-15T04:44:56.408Z,53.70
2018-01-15T04:47:23.954Z,50.03
2018-01-15T04:49:51.510Z,46.33
2018-01-15T04:52:19.057Z,56.55
2018-01-15T04:54:47.381Z,50.80
2018-01-15T04:57:14.918Z,48.28
2018-01-15T04:59:42.484Z,54.13
2018-01-15T05:02:10.013Z,40.53
2018-01-15T05:04:38.350Z,44.80
2018-01-15T05:07:05.889Z,51.73
2018-01-15T05:09:33.455Z,48.13
2018-01-15T05:12:00.990Z,51.58
2018-01-15T05:14:28.585Z,57.57
2018-01-15T05:16:56.114Z,46.13
2018-01-15T05:19:23.677Z,44.13
2018-01-15T05:21:51.220Z,45.47
2018-01-15T05:24:18.753Z,47.37
2018-01-15T05:26:46.321Z,46.70
2018-01-15T05:29:14.621Z,42.90
2018-01-15T05:31:42.177Z,41.80
2018-01-15T05:34:10.465Z,41.13
2018-01-15T05:36:38.029Z,49.25
2018-01-15T05:39:05.562Z,48.13
2018-01-15T05:41:33.877Z,44.80
2018-01-15T05:44:01.397Z,48.07
2018-01-15T05:46:29.714Z,37.57
2018-01-15T05:48:57.233Z,42.70
2018-01-15T05:51:25.558Z,46.10
2018-01-15T05:53:53.091Z,50.60
2018-01-15T05:56:20.645Z,46.93
2018-01-15T05:58:48.964Z,48.30
2018-01-15T06:01:16.519Z,45.30
2018-01-15T06:03:44.069Z,43.80
2018-01-15T06:06:11.628Z,45.97
2018-01-15T06:08:39.150Z,44.80
2018-01-15T06:11:07.471Z,41.40
2018-01-15T06:13:34.998Z,47.60
2018-01-15T06:16:02.553Z,42.50
2018-01-15T06:18:30.858Z,38.50
2018-01-15T06:20:58.405Z,45.97
2018-01-15T06:23:25.958Z,43.37
2018-01-15T06:25:53.499Z,43.50
2018-01-15T06:28:21.817Z,40.40
2018-01-15T06:51:57.518Z,51.08
2018-01-15T06:54:25.058Z,38.90
2018-01-15T06:56:52.594Z,44.20
2018-01-15T06:59:20.919Z,39.23
2018-01-15T07:01:48.450Z,47.83
2018-01-15T07:04:16.001Z,40.77
2018-01-15T07:06:43.539Z,45.10
2018-01-15T07:09:11.093Z,39.50
2018-01-15T07:11:38.629Z,44.97
2018-01-15T07:14:06.177Z,42.90
2018-01-15T07:16:33.701Z,45.60
2018-01-15T07:19:01.249Z,46.50
2018-01-15T07:21:29.543Z,48.03
2018-01-15T07:23:57.106Z,43.43
2018-01-15T07:26:24.630Z,36.60
2018-01-15T07:28:52.187Z,46.70
2018-01-15T07:31:19.715Z,40.27
2018-01-15T07:33:47.277Z,47.30
2018-01-15T07:36:14.808Z,41.47
2018-01-15T07:38:42.366Z,46.87
2018-01-15T07:41:09.899Z,43.63
2018-01-15T07:43:38.232Z,49.00
2018-01-15T07:46:05.757Z,47.33
2018-01-15T07:48:33.314Z,44.30
2018-01-15T07:51:00.847Z,46.40
2018-01-15T07:53:28.374Z,39.93
2018-01-15T07:55:55.925Z,37.30
2018-01-15T07:58:23.466Z,37.07
2018-01-15T08:00:51.022Z,41.00
2018-01-15T08:03:18.554Z,44.50
2018-01-15T08:05:46.882Z,42.40
2018-01-15T08:08:14.414Z,41.33
2018-01-15T08:10:41.974Z,39.50
2018-01-15T08:13:09.501Z,43.73
2018-01-15T08:15:37.826Z,40.40
2018-01-15T08:18:05.358Z,39.80
2018-01-15T08:20:32.918Z,43.70
2018-01-15T08:23:00.459Z,39.43
2018-01-15T08:25:28.892Z,36.13
2018-01-15T08:27:56.521Z,41.70
2018-01-15T08:30:24.121Z,42.10
2018-01-15T08:32:51.713Z,40.77
2018-01-15T08:35:19.326Z,37.27
2018-01-15T08:37:46.898Z,41.70
2018-01-15T08:40:14.508Z,42.93
2018-01-15T08:42:42.863Z,39.20
2018-01-15T08:45:10.441Z,34.87
2018-01-15T08:47:37.989Z,40.93
2018-01-15T08:50:05.553Z,44.80
2018-01-15T08:52:33.943Z,41.03
2018-01-15T08:55:02.346Z,44.07
2018-01-15T08:57:30.682Z,34.97
2018-01-15T08:59:58.242Z,40.17
2018-01-15T09:02:25.920Z,42.43
2018-01-15T09:04:54.296Z,38.10
2018-01-15T09:07:21.854Z,36.63
2018-01-15T09:09:49.378Z,44.07
2018-01-15T09:12:16.926Z,35.40
2018-01-15T09:14:44.457Z,41.43
2018-01-15T09:17:12.014Z,41.07
2018-01-15T09:19:39.549Z,38.43
2018-01-15T09:22:07.097Z,43.90
2018-01-15T09:24:34.625Z,36.10
2018-01-15T09:27:02.179Z,36.23
2018-01-15T09:29:29.714Z,40.87
2018-01-15T09:31:58.029Z,35.27
2018-01-15T09:34:25.557Z,37.90
2018-01-15T09:36:53.118Z,33.43
2018-01-15T09:39:20.650Z,32.33
2018-01-15T09:41:48.202Z,32.20
2018-01-15T09:44:16.522Z,39.07
2018-01-15T09:46:44.086Z,35.47
2018-01-15T09:49:11.618Z,35.20
2018-01-15T09:51:39.938Z,34.10
2018-01-15T09:54:07.468Z,38.87
2018-01-15T09:56:35.003Z,36.37
2018-01-15T09:59:02.562Z,37.00
2018-01-15T10:01:30.086Z,38.47
2018-01-15T10:03:57.644Z,38.90
2018-01-15T10:06:25.186Z,33.50
2018-01-15T10:08:52.739Z,36.40
2018-01-15T10:11:20.263Z,31.80
2018-01-15T10:13:48.578Z,34.03
2018-01-15T10:16:16.105Z,35.93
2018-01-15T10:18:44.421Z,33.13
2018-01-15T10:21:11.960Z,37.80
2018-01-15T10:23:39.517Z,32.63
2018-01-15T10:26:07.054Z,36.60
2018-01-15T10:28:35.378Z,34.57
2018-01-15T10:31:02.902Z,34.57
2018-01-15T10:33:31.226Z,35.43
2018-01-15T10:35:58.758Z,32.53
2018-01-15T10:38:26.314Z,33.57
2018-01-15T10:40:53.854Z,34.10
2018-01-15T10:43:22.181Z,36.43
2018-01-15T10:45:49.707Z,32.33
2018-01-15T10:48:17.268Z,38.83
2018-01-15T10:50:44.794Z,34.20
2018-01-15T10:53:12.350Z,37.50
2018-01-15T10:55:39.878Z,35.93
2018-01-15T10:58:07.441Z,36.47
2018-01-15T11:00:40.583Z,43.90
2018-01-15T11:03:08.906Z,33.53
2018-01-15T11:05:36.434Z,30.50
2018-01-15T11:08:03.957Z,32.30
2018-01-15T11:10:31.529Z,34.73
2018-01-15T11:12:59.825Z,32.83
2018-01-15T11:15:27.378Z,24.50
2018-01-15T11:17:55.668Z,34.70
2018-01-15T11:20:23.227Z,35.07
2018-01-15T11:22:50.750Z,27.00
2018-01-15T11:25:18.309Z,27.63
2018-01-15T11:27:45.838Z,32.30
2018-01-15T11:30:13.398Z,27.50
2018-01-15T11:32:40.973Z,27.37
2018-01-15T11:35:08.501Z,22.30
2018-01-15T11:37:36.021Z,30.23
2018-01-15T11:40:04.353Z,30.60
2018-01-15T11:42:31.878Z,27.53
2018-01-15T11:44:59.429Z,25.60
2018-01-15T11:47:26.974Z,22.57
2018-01-15T11:49:55.294Z,28.00
2018-01-15T11:52:22.833Z,27.70
2018-01-15T11:54:50.389Z,26.77
2018-01-15T11:57:18.691Z,26.23
2018-01-15T11:59:46.214Z,20.37
2018-01-15T12:02:14.546Z,22.70
2018-01-15T12:04:42.077Z,20.30
2018-01-15T12:07:09.645Z,20.63
2018-01-15T12:09:37.170Z,24.37
2018-01-15T12:12:05.486Z,21.13
2018-01-15T12:14:33.034Z,25.67
2018-01-15T12:17:00.598Z,19.87
2018-01-15T12:19:28.135Z,26.50
2018-01-15T12:21:56.454Z,22.60
2018-01-15T12:24:23.987Z,24.43
2018-01-15T12:26:51.549Z,22.03
2018-01-15T12:29:19.082Z,18.90
2018-01-15T12:31:47.413Z,21.20
2018-01-15T12:34:14.938Z,18.13
2018-01-15T12:36:42.493Z,12.57
2018-01-15T12:39:10.026Z,16.00
2018-01-15T12:41:37.587Z,13.90
2018-01-15T12:44:05.118Z,18.70
2018-01-15T12:46:32.676Z,15.30
2018-01-15T12:49:00.202Z,17.37
2018-01-15T12:51:27.759Z,18.47
2018-01-15T12:53:55.298Z,17.27
2018-01-15T12:56:23.625Z,17.40
2018-01-15T12:58:51.153Z,16.93
2018-01-15T13:01:18.682Z,18.57
2018-01-15T13:03:46.237Z,16.90
2018-01-15T13:06:19.701Z,14.67
2018-01-15T13:09:08.178Z,16.10
2018-01-15T13:11:35.744Z,14.40
2018-01-15T13:14:03.297Z,14.73
2018-01-15T13:16:30.827Z,13.43
2018-01-15T13:18:58.382Z,15.13
2018-01-15T13:21:25.910Z,14.90
2018-01-15T13:23:54.232Z,15.27
2018-01-15T13:26:21.763Z,16.40
2018-01-15T13:28:49.330Z,16.20
2018-01-15T13:31:16.858Z,13.40
2018-01-15T13:33:45.174Z,16.97
2018-01-15T13:36:12.706Z,16.63
2018-01-15T13:38:40.275Z,20.23
2018-01-15T13:41:07.810Z,20.10
2018-01-15T13:43:36.126Z,20.20
2018-01-15T13:46:03.657Z,18.03
2018-01-15T13:48:31.217Z,18.10
2018-01-15T13:50:59.523Z,17.83
2018-01-15T13:53:27.097Z,16.30
2018-01-15T13:55:55.385Z,16.53
2018-01-15T13:58:22.970Z,21.53
2018-01-15T14:00:50.553Z,18.63
2018-01-15T14:03:18.079Z,21.20
2018-01-15T14:05:45.610Z,17.00
2018-01-15T14:08:13.173Z,22.27
2018-01-15T14:10:40.712Z,25.17
2018-01-15T14:13:08.276Z,23.93
2018-01-15T14:15:35.857Z,25.97
2018-01-15T14:18:03.393Z,24.67
2018-01-15T14:20:30.953Z,26.40
2018-01-15T14:22:58.479Z,25.03
2018-01-15T14:25:26.799Z,23.03
2018-01-15T14:27:54.332Z,19.27
2018-01-15T14:30:21.892Z,24.33
2018-01-15T14:32:49.426Z,15.50
2018-01-15T14:35:16.981Z,22.07
2018-01-15T14:37:44.517Z,22.13
2018-01-15T14:40:12.078Z,17.87
2018-01-15T14:42:39.608Z,17.63
2018-01-15T14:45:07.169Z,20.47
2018-01-15T14:47:34.709Z,20.70
2018-01-15T14:50:02.269Z,15.43
2018-01-15T14:52:29.811Z,21.73
2018-01-15T14:54:58.129Z,20.40
2018-01-15T14:57:25.665Z,23.80
2018-01-15T14:59:53.213Z,24.77
2018-01-15T15:02:21.522Z,22.00
2018-01-15T15:04:49.093Z,20.33
2018-01-15T15:07:16.621Z,19.97
2018-01-15T15:09:44.183Z,31.07
2018-01-15T15:12:11.718Z,24.87
2018-01-15T15:14:40.050Z,17.83
2018-01-15T15:17:07.581Z,19.97
2018-01-15T15:19:35.118Z,17.17
2018-01-15T15:22:03.442Z,26.03
2018-01-15T15:24:30.976Z,24.87
2018-01-15T15:26:58.521Z,18.73
2018-01-15T15:29:26.809Z,18.23
2018-01-15T15:31:54.364Z,19.33
2018-01-15T15:34:22.655Z,16.07
2018-01-15T15:36:50.212Z,21.20
2018-01-15T15:39:17.739Z,19.27
2018-01-15T15:41:45.298Z,19.00
2018-01-15T15:44:12.822Z,19.70
2018-01-15T15:46:40.410Z,24.80
2018-01-15T15:49:07.944Z,29.83
2018-01-15T15:51:36.257Z,33.67
2018-01-15T15:54:03.786Z,19.73
2018-01-15T15:56:31.338Z,26.93
2018-01-15T15:58:58.876Z,24.70
2018-01-15T16:01:26.435Z,21.93
2018-01-15T16:03:53.965Z,20.07
2018-01-15T16:06:22.289Z,18.00
2018-01-15T16:08:49.838Z,23.20
2018-01-15T16:11:17.392Z,25.33
2018-01-15T16:13:44.921Z,25.17
2018-01-15T16:16:20.923Z,19.13
2018-01-15T16:18:48.488Z,22.20
2018-01-15T16:21:16.042Z,26.27
2018-01-15T16:23:43.571Z,25.90
2018-01-15T16:26:11.106Z,21.80
2018-01-15T16:28:38.653Z,22.27
2018-01-15T16:31:06.180Z,23.37
2018-01-15T16:33:33.733Z,19.90
2018-01-15T16:36:01.311Z,23.10
2018-01-15T16:38:28.890Z,22.83
2018-01-15T16:40:56.429Z,29.60
2018-01-15T16:43:23.985Z,27.80
2018-01-15T16:45:51.544Z,26.13
2018-01-15T16:48:19.097Z,26.87
2018-01-15T16:50:46.629Z,27.50
2018-01-15T16:53:14.173Z,37.97
2018-01-15T16:55:42.474Z,25.07
2018-01-15T16:58:10.217Z,24.13
2018-01-15T17:00:38.517Z,23.50
2018-01-15T17:03:06.066Z,22.97
2018-01-15T17:05:33.601Z,26.77
2018-01-15T17:08:01.931Z,23.47
2018-01-15T17:10:29.462Z,22.20
2018-01-15T17:12:57.010Z,23.70
2018-01-15T17:15:25.298Z,25.00
2018-01-15T17:17:52.849Z,20.67
2018-01-15T17:20:21.151Z,27.80
2018-01-15T17:22:48.707Z,24.50
2018-01-15T17:25:16.238Z,22.13
2018-01-15T17:27:44.602Z,22.33
2018-01-15T17:30:12.159Z,21.50
2018-01-15T17:32:39.693Z,27.13
2018-01-15T17:35:07.255Z,20.00
2018-01-15T17:37:34.845Z,21.50
2018-01-15T17:40:02.365Z,26.00
2018-01-15T17:42:29.938Z,19.97
2018-01-15T17:44:57.475Z,22.80
2018-01-15T17:47:25.005Z,18.00
2018-01-15T17:49:53.323Z,17.10
2018-01-15T17:52:20.849Z,20.87
2018-01-15T17:54:48.407Z,14.40
2018-01-15T17:57:15.989Z,19.50
2018-01-15T17:59:43.548Z,17.27
2018-01-15T18:02:11.161Z,16.37
2018-01-15T18:04:39.506Z,22.00
2018-01-15T18:07:07.815Z,22.27
2018-01-15T18:09:35.378Z,22.77
2018-01-15T18:12:03.687Z,20.20
2018-01-15T18:14:31.249Z,19.10
2018-01-15T18:16:58.773Z,17.47
2018-01-15T18:19:27.101Z,15.27
2018-01-15T18:21:54.634Z,14.73
2018-01-15T18:24:22.167Z,13.20
2018-01-15T18:26:50.553Z,12.40
2018-01-15T18:29:18.046Z,12.50
2018-01-15T18:31:45.605Z,10.70
2018-01-15T18:34:13.138Z,10.80
2018-01-15T18:36:41.458Z,10.07
2018-01-15T18:39:08.982Z,14.20
2018-01-15T18:41:37.299Z,12.97
2018-01-15T18:44:04.822Z,9.37
2018-01-15T18:46:32.373Z,13.20
2018-01-15T18:49:00.663Z,14.97
2018-01-15T18:51:28.219Z,16.30
2018-01-15T18:53:55.749Z,10.40
2018-01-15T18:56:23.306Z,12.73
2018-01-15T18:58:50.843Z,11.73
2018-01-15T19:01:18.399Z,9.87
2018-01-15T19:03:45.925Z,10.53
2018-01-15T19:06:14.781Z,10.33
2018-01-15T19:08:42.306Z,11.87
2018-01-15T19:11:09.866Z,11.00
2018-01-15T19:13:37.416Z,10.40
2018-01-15T19:16:04.973Z,8.67
2018-01-15T19:18:32.493Z,8.30
2018-01-15T19:21:00.822Z,8.60
2018-01-15T19:23:28.346Z,9.83
2018-01-15T19:25:55.870Z,11.17
2018-01-15T19:28:23.426Z,12.13
2018-01-15T19:30:50.956Z,11.47
2018-01-15T19:33:18.515Z,10.93
2018-01-15T19:38:56.883Z,9.40
2018-01-15T19:41:24.909Z,7.17
2018-01-15T19:46:59.986Z,10.00
2018-01-15T19:49:33.146Z,7.60
2018-01-15T19:52:06.466Z,7.70
2018-01-15T19:54:40.013Z,7.30
2018-01-15T19:57:13.956Z,8.20
2018-01-15T19:59:47.065Z,7.40
2018-01-15T20:02:20.366Z,5.77
2018-01-15T20:04:53.494Z,7.73
2018-01-15T20:07:27.452Z,11.77
2018-01-15T20:10:00.739Z,5.87
2018-01-15T20:12:28.283Z,5.33
2018-01-15T20:14:55.810Z,6.33
2018-01-15T20:17:23.361Z,6.53
2018-01-15T20:19:50.914Z,5.00
2018-01-15T20:22:18.436Z,4.60
2018-01-15T20:24:45.978Z,6.37
2018-01-15T20:27:13.510Z,5.40
2018-01-15T20:29:41.829Z,5.07
2018-01-15T20:32:09.350Z,5.70
2018-01-15T20:34:37.672Z,5.20
2018-01-15T20:37:05.199Z,5.20
2018-01-15T20:39:32.754Z,5.60
2018-01-15T20:42:01.049Z,5.07
2018-01-15T20:44:28.605Z,6.13
2018-01-15T20:46:56.138Z,4.80
2018-01-15T20:49:23.700Z,4.70
2018-01-15T20:51:51.229Z,5.00
2018-01-15T20:54:18.784Z,4.13
2018-01-15T20:56:46.338Z,4.60
2018-01-15T20:59:13.890Z,7.10
2018-01-15T21:01:41.654Z,4.37
2018-01-15T21:04:09.561Z,4.20
2018-01-15T21:06:37.130Z,5.30
2018-01-15T21:09:07.622Z,4.13
2018-01-15T21:11:35.911Z,4.10
2018-01-15T21:14:03.458Z,4.97
2018-01-15T21:16:30.977Z,3.17
2018-01-15T21:18:59.290Z,5.00
2018-01-15T21:21:26.818Z,3.83
2018-01-15T21:23:54.345Z,2.90
2018-01-15T21:26:21.915Z,4.93
2018-01-15T21:28:50.205Z,3.77
2018-01-15T21:31:18.522Z,4.83
2018-01-15T21:33:46.041Z,6.00
2018-01-15T21:36:14.358Z,3.93
2018-01-15T21:38:41.890Z,4.50
2018-01-15T21:41:09.440Z,5.30
2018-01-15T21:43:37.723Z,4.60
2018-01-15T21:46:05.267Z,3.93
2018-01-15T21:48:33.558Z,4.40
2018-01-15T21:51:01.106Z,3.23
2018-01-15T21:53:29.404Z,3.30
2018-01-15T21:55:56.954Z,5.13
2018-01-15T21:58:24.486Z,3.03
2018-01-15T22:00:52.044Z,3.93
2018-01-15T22:03:20.392Z,4.83
2018-01-15T22:05:47.937Z,4.63
2018-01-15T22:08:15.468Z,4.40
2018-01-15T22:10:43.018Z,5.03
2018-01-15T22:13:11.311Z,6.00
2018-01-15T22:15:38.853Z,4.53
2018-01-15T22:18:07.146Z,3.80
2018-01-15T22:20:34.704Z,3.33
2018-01-15T22:23:02.237Z,4.43
2018-01-15T22:25:29.759Z,3.33
2018-01-15T22:27:57.315Z,4.63
2018-01-15T22:30:24.845Z,4.30
2018-01-15T22:32:52.399Z,3.60
2018-01-15T22:35:19.933Z,5.80
2018-01-15T22:37:47.480Z,4.87
2018-01-15T22:40:15.003Z,8.63
2018-01-15T22:42:42.549Z,6.10
2018-01-15T22:45:10.062Z,6.73
2018-01-15T22:47:37.626Z,4.37
2018-01-15T22:50:05.149Z,6.43
2018-01-15T22:52:32.696Z,5.10
2018-01-15T22:55:00.213Z,5.00
2018-01-15T22:57:28.534Z,4.97
2018-01-15T22:59:56.098Z,4.90
2018-01-15T23:02:23.662Z,4.20
2018-01-15T23:04:51.186Z,4.33
2018-01-15T23:07:19.494Z,4.00
2018-01-15T23:09:47.013Z,4.53
2018-01-15T23:12:15.327Z,5.10
2018-01-15T23:14:42.850Z,6.90
2018-01-15T23:17:11.165Z,3.17
2018-01-15T23:19:38.686Z,4.20
2018-01-15T23:22:06.998Z,3.43
2018-01-15T23:24:34.525Z,3.00
2018-01-15T23:27:02.814Z,4.70
2018-01-15T23:29:30.360Z,3.80
2018-01-15T23:31:58.649Z,3.03
2018-01-15T23:34:26.206Z,3.83
2018-01-15T23:36:54.494Z,2.93
2018-01-15T23:39:22.042Z,4.47
2018-01-15T23:41:49.563Z,3.17
2018-01-15T23:44:17.105Z,4.43
2018-01-15T23:46:44.621Z,4.60
2018-01-15T23:49:12.166Z,2.50
2018-01-15T23:51:40.479Z,2.30
2018-01-15T23:54:08.017Z,4.60
2018-01-15T23:56:35.546Z,3.90
2018-01-15T23:59:03.102Z,4.00
